Kaprifol — 5BXX2 — position and weather

sailwx.info

Track history (hours):
 
Tides and Currents Weather Stations Pressure Air Temp Water Temp Dewpoint Dewpoint Depression Visibility Wind Speed Wind Dir Waves Ship Positions

Kaprifol

Last reported at 2015-Aug-03 12:20 UTC. Time now 2015-Aug-03 13:11 UTC.
Position N 57°47' E 009°33'.

Length 90 m; draft 5.5 m.

Type: Tanker. MMSI: 210445000.

Date/timePositionNaut miles runAvg speedWind from/ knotsBaromVisibWave heightAir tempDewpointWater temp
2015-Aug-03 12:20N 57°47' E 009°33'911.3
2015-Aug-03 11:33N 57°46' E 009°17'1511.3
2015-Aug-03 10:15N 57°45' E 008°49'1911.1
2015-Aug-03 08:29N 57°42' E 008°13'354 7.1
2015-Aug-01 06:19N 63°36' E 009°16'810.2
2015-Aug-01 05:34N 63°43' E 009°19'10 9.6
2015-Aug-01 04:33N 63°49' E 009°36'8 8.4
2015-Aug-01 03:34N 63°53' E 009°53'0 0.2
2015-Aug-01 02:33N 63°53' E 009°52'0 0.0
2015-Aug-01 01:33N 63°53' E 009°52'0 0.0
2015-Aug-01 00:33N 63°53' E 009°52'0 0.0
2015-Jul-31 23:33N 63°53' E 009°52'0 0.1
2015-Jul-31 22:33N 63°53' E 009°52'0 0.0
2015-Jul-31 21:33N 63°53' E 009°52'0 0.0
2015-Jul-31 20:33N 63°53' E 009°52'0 0.0
2015-Jul-31 19:27N 63°53' E 009°52'0 0.0
2015-Jul-31 18:33N 63°53' E 009°52'0 0.0
2015-Jul-31 17:33N 63°53' E 009°52'0 0.0
2015-Jul-31 16:33N 63°53' E 009°52'0 0.0
2015-Jul-31 15:32N 63°53' E 009°52'0 0.0
2015-Jul-31 14:32N 63°53' E 009°52'0 0.0
2015-Jul-31 13:32N 63°53' E 009°52'0 0.0
2015-Jul-31 12:32N 63°53' E 009°52'0 0.0
2015-Jul-31 11:32N 63°53' E 009°52'0 0.0
2015-Jul-31 10:32N 63°53' E 009°52'0 0.0
2015-Jul-31 09:32N 63°53' E 009°52'0 0.0
2015-Jul-31 08:32N 63°53' E 009°52'0 0.0
2015-Jul-31 07:32N 63°53' E 009°52'0 0.0
2015-Jul-31 06:32N 63°53' E 009°52'0 0.0
2015-Jul-31 05:32N 63°53' E 009°52'0 0.0
2015-Jul-31 04:32N 63°53' E 009°52'0 0.0
2015-Jul-31 03:32N 63°53' E 009°52'0 0.0
2015-Jul-31 02:32N 63°53' E 009°52'0 0.0
2015-Jul-31 01:32N 63°53' E 009°52'0 0.0
2015-Jul-31 00:32N 63°53' E 009°52'0 0.0
2015-Jul-30 23:32N 63°53' E 009°52'0 0.0
2015-Jul-30 22:32N 63°53' E 009°52'0 0.0
2015-Jul-30 21:32N 63°53' E 009°52'0 0.0
2015-Jul-30 20:32N 63°53' E 009°52'0 0.0
2015-Jul-30 19:32N 63°53' E 009°52'0 0.0
2015-Jul-30 18:32N 63°53' E 009°52'0 0.0
2015-Jul-30 17:32N 63°53' E 009°52'0 0.0
2015-Jul-30 16:32N 63°53' E 009°52'0 0.0
2015-Jul-30 15:32N 63°53' E 009°52'2 2.3
2015-Jul-30 14:33N 63°53' E 009°47'1010.0
2015-Jul-30 13:33N 63°45' E 009°32'1010.1
2015-Jul-30 12:33N 63°36' E 009°21'  
2015-Jul-27 23:05N 59°35' E 004°52'5 9.8
2015-Jul-27 22:33N 59°30' E 004°54'1010.1
2015-Jul-27 21:33N 59°20' E 004°57'10 9.9
2015-Jul-27 20:33N 59°11' E 005°03'9 9.3
2015-Jul-27 19:33N 59°07' E 005°20'10 9.8
2015-Jul-27 18:33N 59°02' E 005°37'6 6.0
2015-Jul-27 17:33N 58°58' E 005°46'0 0.1
2015-Jul-27 16:31N 58°58' E 005°45'0 0.0
2015-Jul-27 15:31N 58°58' E 005°45'0 0.0
2015-Jul-27 14:31N 58°58' E 005°45'0 0.0
2015-Jul-27 13:31N 58°58' E 005°45'0 0.0
2015-Jul-27 12:31N 58°58' E 005°45'0 0.0
2015-Jul-27 11:31N 58°58' E 005°45'0 0.0
2015-Jul-27 10:31N 58°58' E 005°45'0 0.0
2015-Jul-27 09:31N 58°58' E 005°45'3 2.8
2015-Jul-27 08:33N 59°01' E 005°48'8 7.8
2015-Jul-27 07:33N 59°02' E 005°33'1010.4
2015-Jul-27 06:33N 58°51' E 005°31'276 8.9
2015-Jul-25 23:21N 54°15' E 005°09'4 4.6
2015-Jul-25 22:26N 54°11' E 005°09'4 4.6
2015-Jul-25 21:33N 54°07' E 005°08'5 4.7
2015-Jul-25 20:33N 54°02' E 005°05'4 4.0
2015-Jul-25 19:33N 53°59' E 005°03'4 3.9
2015-Jul-25 18:29N 53°55' E 005°00'3 3.6
2015-Jul-25 17:31N 53°51' E 004°58'3 2.8
2015-Jul-25 16:31N 53°49' E 004°58'2 2.4
2015-Jul-25 15:32N 53°46' E 004°58'17 4.1
2015-Jul-25 11:28N 53°31' E 004°46'4112.7
2015-Jul-25 08:15N 52°55' E 004°16'812.1
2015-Jul-25 07:33N 52°47' E 004°10'1211.8
2015-Jul-25 06:33N 52°37' E 004°00'2211.0
2015-Jul-25 04:32N 52°15' E 003°53'1010.7
2015-Jul-25 03:33N 52°05' E 003°54'9 9.3
2015-Jul-25 02:33N 51°59' E 004°06'1111.2
2015-Jul-25 01:33N 51°52' E 004°20'9 9.3
2015-Jul-25 00:33N 51°49' E 004°34'3 2.7
2015-Jul-24 23:32N 51°47' E 004°38'0 0.0
2015-Jul-24 22:29N 51°47' E 004°38'0 0.0
2015-Jul-24 21:32N 51°47' E 004°38'0 0.0
2015-Jul-24 20:29N 51°47' E 004°38'0 0.0
2015-Jul-24 19:32N 51°47' E 004°38'0 0.0
2015-Jul-24 18:32N 51°47' E 004°38'0 0.0
2015-Jul-24 17:32N 51°47' E 004°38'0 0.0
2015-Jul-24 16:32N 51°47' E 004°38'0 0.0
2015-Jul-24 15:32N 51°47' E 004°38'0 0.0
2015-Jul-24 14:32N 51°47' E 004°38'0 0.0
2015-Jul-24 13:32N 51°47' E 004°38'0 0.0
2015-Jul-24 12:29N 51°47' E 004°38'  
Track history (hours):
 
Tides and Currents Weather Stations Pressure Air Temp Water Temp Dewpoint Dewpoint Depression Visibility Wind Speed Wind Dir Waves Ship Positions

Kaprifol

Last reported at 2015-Aug-03 12:20 UTC. Time now 2015-Aug-03 13:11 UTC.
Position N 57°47' E 009°33'.

Length 90 m; draft 5.5 m.

Type: Tanker. MMSI: 210445000.

Date/timePositionNaut miles runAvg speedWind from/ knotsBaromVisibWave heightAir tempDewpointWater temp
2015-Aug-03 12:20N 57°47' E 009°33'911.3
2015-Aug-03 11:33N 57°46' E 009°17'1511.3
2015-Aug-03 10:15N 57°45' E 008°49'1911.1
2015-Aug-03 08:29N 57°42' E 008°13'354 7.1
2015-Aug-01 06:19N 63°36' E 009°16'810.2
2015-Aug-01 05:34N 63°43' E 009°19'10 9.6
2015-Aug-01 04:33N 63°49' E 009°36'8 8.4
2015-Aug-01 03:34N 63°53' E 009°53'0 0.2
2015-Aug-01 02:33N 63°53' E 009°52'0 0.0
2015-Aug-01 01:33N 63°53' E 009°52'0 0.0
2015-Aug-01 00:33N 63°53' E 009°52'0 0.0
2015-Jul-31 23:33N 63°53' E 009°52'0 0.1
2015-Jul-31 22:33N 63°53' E 009°52'0 0.0
2015-Jul-31 21:33N 63°53' E 009°52'0 0.0
2015-Jul-31 20:33N 63°53' E 009°52'0 0.0
2015-Jul-31 19:27N 63°53' E 009°52'0 0.0
2015-Jul-31 18:33N 63°53' E 009°52'0 0.0
2015-Jul-31 17:33N 63°53' E 009°52'0 0.0
2015-Jul-31 16:33N 63°53' E 009°52'0 0.0
2015-Jul-31 15:32N 63°53' E 009°52'0 0.0
2015-Jul-31 14:32N 63°53' E 009°52'0 0.0
2015-Jul-31 13:32N 63°53' E 009°52'0 0.0
2015-Jul-31 12:32N 63°53' E 009°52'0 0.0
2015-Jul-31 11:32N 63°53' E 009°52'0 0.0
2015-Jul-31 10:32N 63°53' E 009°52'0 0.0
2015-Jul-31 09:32N 63°53' E 009°52'0 0.0
2015-Jul-31 08:32N 63°53' E 009°52'0 0.0
2015-Jul-31 07:32N 63°53' E 009°52'0 0.0
2015-Jul-31 06:32N 63°53' E 009°52'0 0.0
2015-Jul-31 05:32N 63°53' E 009°52'0 0.0
2015-Jul-31 04:32N 63°53' E 009°52'0 0.0
2015-Jul-31 03:32N 63°53' E 009°52'0 0.0
2015-Jul-31 02:32N 63°53' E 009°52'0 0.0
2015-Jul-31 01:32N 63°53' E 009°52'0 0.0
2015-Jul-31 00:32N 63°53' E 009°52'0 0.0
2015-Jul-30 23:32N 63°53' E 009°52'0 0.0
2015-Jul-30 22:32N 63°53' E 009°52'0 0.0
2015-Jul-30 21:32N 63°53' E 009°52'0 0.0
2015-Jul-30 20:32N 63°53' E 009°52'0 0.0
2015-Jul-30 19:32N 63°53' E 009°52'0 0.0
2015-Jul-30 18:32N 63°53' E 009°52'0 0.0
2015-Jul-30 17:32N 63°53' E 009°52'0 0.0
2015-Jul-30 16:32N 63°53' E 009°52'0 0.0
2015-Jul-30 15:32N 63°53' E 009°52'2 2.3
2015-Jul-30 14:33N 63°53' E 009°47'1010.0
2015-Jul-30 13:33N 63°45' E 009°32'1010.1
2015-Jul-30 12:33N 63°36' E 009°21'  
2015-Jul-27 23:05N 59°35' E 004°52'5 9.8
2015-Jul-27 22:33N 59°30' E 004°54'1010.1
2015-Jul-27 21:33N 59°20' E 004°57'10 9.9
2015-Jul-27 20:33N 59°11' E 005°03'9 9.3
2015-Jul-27 19:33N 59°07' E 005°20'10 9.8
2015-Jul-27 18:33N 59°02' E 005°37'6 6.0
2015-Jul-27 17:33N 58°58' E 005°46'0 0.1
2015-Jul-27 16:31N 58°58' E 005°45'0 0.0
2015-Jul-27 15:31N 58°58' E 005°45'0 0.0
2015-Jul-27 14:31N 58°58' E 005°45'0 0.0
2015-Jul-27 13:31N 58°58' E 005°45'0 0.0
2015-Jul-27 12:31N 58°58' E 005°45'0 0.0
2015-Jul-27 11:31N 58°58' E 005°45'0 0.0
2015-Jul-27 10:31N 58°58' E 005°45'0 0.0
2015-Jul-27 09:31N 58°58' E 005°45'3 2.8
2015-Jul-27 08:33N 59°01' E 005°48'8 7.8
2015-Jul-27 07:33N 59°02' E 005°33'1010.4
2015-Jul-27 06:33N 58°51' E 005°31'276 8.9
2015-Jul-25 23:21N 54°15' E 005°09'4 4.6
2015-Jul-25 22:26N 54°11' E 005°09'4 4.6
2015-Jul-25 21:33N 54°07' E 005°08'5 4.7
2015-Jul-25 20:33N 54°02' E 005°05'4 4.0
2015-Jul-25 19:33N 53°59' E 005°03'4 3.9
2015-Jul-25 18:29N 53°55' E 005°00'3 3.6
2015-Jul-25 17:31N 53°51' E 004°58'3 2.8
2015-Jul-25 16:31N 53°49' E 004°58'2 2.4
2015-Jul-25 15:32N 53°46' E 004°58'17 4.1
2015-Jul-25 11:28N 53°31' E 004°46'4112.7
2015-Jul-25 08:15N 52°55' E 004°16'812.1
2015-Jul-25 07:33N 52°47' E 004°10'1211.8
2015-Jul-25 06:33N 52°37' E 004°00'2211.0
2015-Jul-25 04:32N 52°15' E 003°53'1010.7
2015-Jul-25 03:33N 52°05' E 003°54'9 9.3
2015-Jul-25 02:33N 51°59' E 004°06'1111.2
2015-Jul-25 01:33N 51°52' E 004°20'9 9.3
2015-Jul-25 00:33N 51°49' E 004°34'3 2.7
2015-Jul-24 23:32N 51°47' E 004°38'0 0.0
2015-Jul-24 22:29N 51°47' E 004°38'0 0.0
2015-Jul-24 21:32N 51°47' E 004°38'0 0.0
2015-Jul-24 20:29N 51°47' E 004°38'0 0.0
2015-Jul-24 19:32N 51°47' E 004°38'0 0.0
2015-Jul-24 18:32N 51°47' E 004°38'0 0.0
2015-Jul-24 17:32N 51°47' E 004°38'0 0.0
2015-Jul-24 16:32N 51°47' E 004°38'0 0.0
2015-Jul-24 15:32N 51°47' E 004°38'0 0.0
2015-Jul-24 14:32N 51°47' E 004°38'0 0.0
2015-Jul-24 13:32N 51°47' E 004°38'0 0.0
2015-Jul-24 12:29N 51°47' E 004°38'  

Dump ship's entire track history